< Cyclone 201308 2013 Season Cyclone 201313 >
Cyclone 201310 (Rusty)
General InformationTrack Information on Google MapsDetailed Wind InformationList of All Images || ResourceGoogle EarthGE AnimationAtom FeedGeoJSON
Detalied Best Track (Time Zone = UTC)
Year Month Day Hour Lat. Long. Pressure (hPa) Wind (kt) Class Image Chart
2013 2 21 06 -12.9 125.9 1005 20 2 Image --
2013 2 21 12 -13.3 124.6 1003 20 2 Image --
2013 2 21 18 -13.6 123.3 1003 20 2 Image --
2013 2 22 00 -13.9 122.0 1002 25 2 Image --
2013 2 22 03 -13.2 122.3 1000 15 2 Image --
2013 2 22 06 -14.3 121.1 1002 25 2 Image --
2013 2 22 09 -13.6 121.1 1000.5 15 2 Image --
2013 2 22 12 -14.7 120.2 999 25 2 Image --
2013 2 22 18 -15.1 119.4 999 25 2 Image --
2013 2 23 00 -15.5 118.5 998 25 2 Image --
2013 2 23 06 -15.8 118.4 997 25 2 Image --
2013 2 23 12 -16.2 118.2 995 25 2 Image --
2013 2 23 18 -16.5 118.2 995 25 2 Image --
2013 2 24 00 -16.8 118.2 990 30 2 Image --
2013 2 24 06 -17.0 118.3 985 35 3 Image --
2013 2 24 12 -17.1 118.4 981 40 3 Image --
2013 2 24 18 -17.2 118.5 978 45 3 Image --
2013 2 25 00 -17.4 118.9 970 50 4 Image --
2013 2 25 06 -17.9 119.1 965 55 4 Image --
2013 2 25 12 -18.3 119.2 962 65 5 Image --
2013 2 25 18 -18.6 119.2 960 65 5 Image --
2013 2 26 00 -18.9 119.1 957 75 5 Image --
2013 2 26 03 -19.0 119.1 956 75 0 Image --
2013 2 26 06 -19.1 119.1 955 75 5 Image --
2013 2 26 09 -19.1 119.1 952.5 75 0 Image --
2013 2 26 12 -19.1 119.1 950 75 5 Image --
2013 2 26 15 -19.1 119.1 949 80 0 Image --
2013 2 26 18 -19.1 119.1 948 85 5 Image --
2013 2 26 21 -19.1 119.1 944 90 5 Image --
2013 2 27 00 -19.2 119.3 944 90 5 Image --
2013 2 27 03 -19.5 119.4 948 85 5 Image --
2013 2 27 06 -19.7 119.5 950 75 5 Image --
2013 2 27 07 -19.8 119.6 951.667 75 0 Image --
2013 2 27 08 -19.9 119.6 953.333 75 0 Image --
2013 2 27 09 -19.9 119.6 955 75 5 Image --
2013 2 27 12 -20.1 119.8 967 65 5 Image --
2013 2 27 15 -20.2 120.0 974 55 4 Image --
2013 2 27 18 -20.5 120.1 982 45 3 Image --
2013 2 27 21 -20.9 120.3 986 40 0 Image --
2013 2 28 00 -21.1 120.5 990 35 3 Image --
2013 2 28 06 -22.0 120.7 992 30 2 Image --
2013 2 28 12 -22.9 120.7 990 25 2 Image --
2013 2 28 18 -23.9 121.0 993 25 2 Image --
2013 3 1 00 -25.9 121.0 996 25 2 Image --
< Cyclone 201308 2013 Season Cyclone 201313 >

Help